sensor_id;sensor_type;location;lat;lon;timestamp;P1;durP1;ratioP1;P2;durP2;ratioP2
54555;SDS011;57291;37.520;15.106;2024-02-28T00:00:29;50.70;;;6.38;;
54555;SDS011;57291;37.520;15.106;2024-02-28T00:02:56;44.35;;;6.28;;
54555;SDS011;57291;37.520;15.106;2024-02-28T00:05:23;47.03;;;6.57;;
54555;SDS011;57291;37.520;15.106;2024-02-28T00:07:51;50.10;;;7.53;;
54555;SDS011;57291;37.520;15.106;2024-02-28T00:10:19;38.45;;;5.75;;
54555;SDS011;57291;37.520;15.106;2024-02-28T00:12:47;34.78;;;5.97;;
54555;SDS011;57291;37.520;15.106;2024-02-28T00:15:15;40.70;;;6.60;;
54555;SDS011;57291;37.520;15.106;2024-02-28T00:17:43;50.85;;;6.88;;
54555;SDS011;57291;37.520;15.106;2024-02-28T00:20:10;56.22;;;7.65;;
54555;SDS011;57291;37.520;15.106;2024-02-28T00:22:39;41.85;;;6.63;;
54555;SDS011;57291;37.520;15.106;2024-02-28T00:25:07;37.00;;;6.32;;
54555;SDS011;57291;37.520;15.106;2024-02-28T00:27:36;42.03;;;6.15;;
54555;SDS011;57291;37.520;15.106;2024-02-28T00:30:04;38.70;;;6.68;;
54555;SDS011;57291;37.520;15.106;2024-02-28T00:32:33;42.00;;;6.07;;
54555;SDS011;57291;37.520;15.106;2024-02-28T00:35:01;42.88;;;6.65;;
54555;SDS011;57291;37.520;15.106;2024-02-28T00:37:29;46.00;;;6.82;;
54555;SDS011;57291;37.520;15.106;2024-02-28T00:39:57;45.75;;;6.65;;
54555;SDS011;57291;37.520;15.106;2024-02-28T00:42:24;41.10;;;6.03;;
54555;SDS011;57291;37.520;15.106;2024-02-28T00:44:52;45.88;;;6.50;;
54555;SDS011;57291;37.520;15.106;2024-02-28T00:47:19;43.55;;;6.72;;
54555;SDS011;57291;37.520;15.106;2024-02-28T00:49:46;46.78;;;7.00;;
54555;SDS011;57291;37.520;15.106;2024-02-28T00:52:13;47.78;;;6.65;;
54555;SDS011;57291;37.520;15.106;2024-02-28T00:54:41;40.55;;;7.47;;
54555;SDS011;57291;37.520;15.106;2024-02-28T00:57:08;50.40;;;7.03;;
54555;SDS011;57291;37.520;15.106;2024-02-28T00:59:35;49.72;;;6.25;;
54555;SDS011;57291;37.520;15.106;2024-02-28T01:02:03;44.78;;;6.95;;
54555;SDS011;57291;37.520;15.106;2024-02-28T01:04:30;50.58;;;6.20;;
54555;SDS011;57291;37.520;15.106;2024-02-28T01:06:57;43.60;;;7.47;;
54555;SDS011;57291;37.520;15.106;2024-02-28T01:09:25;37.60;;;6.53;;
54555;SDS011;57291;37.520;15.106;2024-02-28T01:11:52;44.35;;;7.68;;
54555;SDS011;57291;37.520;15.106;2024-02-28T01:14:19;43.88;;;6.40;;
54555;SDS011;57291;37.520;15.106;2024-02-28T01:16:46;40.15;;;6.35;;
54555;SDS011;57291;37.520;15.106;2024-02-28T01:19:15;52.47;;;7.57;;
54555;SDS011;57291;37.520;15.106;2024-02-28T01:21:43;42.25;;;5.78;;
54555;SDS011;57291;37.520;15.106;2024-02-28T01:24:10;40.13;;;6.38;;
54555;SDS011;57291;37.520;15.106;2024-02-28T01:26:38;50.10;;;6.38;;
54555;SDS011;57291;37.520;15.106;2024-02-28T01:29:05;35.05;;;5.50;;
54555;SDS011;57291;37.520;15.106;2024-02-28T01:31:32;53.17;;;6.75;;
54555;SDS011;57291;37.520;15.106;2024-02-28T01:34:00;40.88;;;6.65;;
54555;SDS011;57291;37.520;15.106;2024-02-28T01:36:27;49.20;;;6.22;;
54555;SDS011;57291;37.520;15.106;2024-02-28T01:38:54;49.28;;;6.15;;
54555;SDS011;57291;37.520;15.106;2024-02-28T01:41:21;50.17;;;7.65;;
54555;SDS011;57291;37.520;15.106;2024-02-28T01:43:49;33.38;;;5.10;;
54555;SDS011;57291;37.520;15.106;2024-02-28T01:46:23;38.35;;;5.38;;
54555;SDS011;57291;37.520;15.106;2024-02-28T01:48:53;38.63;;;5.88;;
54555;SDS011;57291;37.520;15.106;2024-02-28T01:51:22;47.58;;;7.15;;
54555;SDS011;57291;37.520;15.106;2024-02-28T01:53:51;44.53;;;6.57;;
54555;SDS011;57291;37.520;15.106;2024-02-28T01:56:20;44.78;;;5.97;;
54555;SDS011;57291;37.520;15.106;2024-02-28T01:58:50;48.20;;;6.65;;
54555;SDS011;57291;37.520;15.106;2024-02-28T02:01:17;48.95;;;6.65;;
54555;SDS011;57291;37.520;15.106;2024-02-28T02:03:50;47.15;;;6.05;;
54555;SDS011;57291;37.520;15.106;2024-02-28T02:06:18;50.90;;;6.30;;
54555;SDS011;57291;37.520;15.106;2024-02-28T02:08:45;49.97;;;6.50;;
54555;SDS011;57291;37.520;15.106;2024-02-28T02:11:15;45.00;;;7.07;;
54555;SDS011;57291;37.520;15.106;2024-02-28T02:13:49;41.78;;;6.72;;
54555;SDS011;57291;37.520;15.106;2024-02-28T02:16:20;49.40;;;7.63;;
54555;SDS011;57291;37.520;15.106;2024-02-28T02:18:53;37.17;;;6.65;;
54555;SDS011;57291;37.520;15.106;2024-02-28T02:21:24;39.88;;;6.63;;
54555;SDS011;57291;37.520;15.106;2024-02-28T02:23:57;42.25;;;6.93;;
54555;SDS011;57291;37.520;15.106;2024-02-28T02:26:24;39.38;;;6.55;;
54555;SDS011;57291;37.520;15.106;2024-02-28T02:28:51;49.20;;;7.43;;
54555;SDS011;57291;37.520;15.106;2024-02-28T02:31:18;36.95;;;6.18;;
54555;SDS011;57291;37.520;15.106;2024-02-28T02:33:46;47.28;;;7.57;;
54555;SDS011;57291;37.520;15.106;2024-02-28T02:36:13;44.85;;;7.78;;
54555;SDS011;57291;37.520;15.106;2024-02-28T02:38:40;51.85;;;6.78;;
54555;SDS011;57291;37.520;15.106;2024-02-28T02:41:08;42.00;;;7.32;;
54555;SDS011;57291;37.520;15.106;2024-02-28T02:43:35;44.00;;;6.38;;
54555;SDS011;57291;37.520;15.106;2024-02-28T02:46:02;45.67;;;7.10;;
54555;SDS011;57291;37.520;15.106;2024-02-28T02:48:30;39.03;;;6.65;;
54555;SDS011;57291;37.520;15.106;2024-02-28T02:50:57;42.92;;;7.00;;
54555;SDS011;57291;37.520;15.106;2024-02-28T02:53:24;49.42;;;7.25;;
54555;SDS011;57291;37.520;15.106;2024-02-28T02:55:52;49.35;;;6.72;;
54555;SDS011;57291;37.520;15.106;2024-02-28T02:58:20;52.25;;;8.02;;
54555;SDS011;57291;37.520;15.106;2024-02-28T03:00:48;41.15;;;6.05;;
54555;SDS011;57291;37.520;15.106;2024-02-28T03:03:16;38.83;;;6.65;;
54555;SDS011;57291;37.520;15.106;2024-02-28T03:05:44;39.40;;;6.38;;
54555;SDS011;57291;37.520;15.106;2024-02-28T03:08:11;48.17;;;6.95;;
54555;SDS011;57291;37.520;15.106;2024-02-28T03:10:39;44.53;;;7.28;;
54555;SDS011;57291;37.520;15.106;2024-02-28T03:13:06;44.53;;;6.97;;
54555;SDS011;57291;37.520;15.106;2024-02-28T03:15:34;38.15;;;6.78;;
54555;SDS011;57291;37.520;15.106;2024-02-28T03:18:01;52.92;;;7.00;;
54555;SDS011;57291;37.520;15.106;2024-02-28T03:20:29;42.88;;;6.63;;
54555;SDS011;57291;37.520;15.106;2024-02-28T03:22:56;38.60;;;6.43;;
54555;SDS011;57291;37.520;15.106;2024-02-28T03:25:23;49.50;;;7.40;;
54555;SDS011;57291;37.520;15.106;2024-02-28T03:27:51;52.42;;;7.75;;
54555;SDS011;57291;37.520;15.106;2024-02-28T03:30:19;51.03;;;8.23;;
54555;SDS011;57291;37.520;15.106;2024-02-28T03:32:47;45.67;;;7.38;;
54555;SDS011;57291;37.520;15.106;2024-02-28T03:35:14;53.28;;;7.38;;
54555;SDS011;57291;37.520;15.106;2024-02-28T03:37:42;40.13;;;6.88;;
54555;SDS011;57291;37.520;15.106;2024-02-28T03:40:09;57.40;;;7.00;;
54555;SDS011;57291;37.520;15.106;2024-02-28T03:42:37;46.22;;;6.97;;
54555;SDS011;57291;37.520;15.106;2024-02-28T03:45:04;45.97;;;7.40;;
54555;SDS011;57291;37.520;15.106;2024-02-28T03:47:36;45.88;;;7.45;;
54555;SDS011;57291;37.520;15.106;2024-02-28T03:50:05;56.13;;;7.85;;
54555;SDS011;57291;37.520;15.106;2024-02-28T03:52:33;52.80;;;8.25;;
54555;SDS011;57291;37.520;15.106;2024-02-28T03:55:00;42.30;;;7.32;;
54555;SDS011;57291;37.520;15.106;2024-02-28T03:57:27;46.50;;;7.90;;
54555;SDS011;57291;37.520;15.106;2024-02-28T03:59:55;49.20;;;8.07;;
54555;SDS011;57291;37.520;15.106;2024-02-28T04:02:22;49.10;;;8.25;;
54555;SDS011;57291;37.520;15.106;2024-02-28T04:04:49;51.83;;;8.23;;
54555;SDS011;57291;37.520;15.106;2024-02-28T04:07:17;51.83;;;8.90;;
54555;SDS011;57291;37.520;15.106;2024-02-28T04:09:44;51.50;;;8.40;;
54555;SDS011;57291;37.520;15.106;2024-02-28T04:12:11;53.17;;;8.73;;
54555;SDS011;57291;37.520;15.106;2024-02-28T04:14:38;49.17;;;8.15;;
54555;SDS011;57291;37.520;15.106;2024-02-28T04:17:06;53.90;;;8.90;;
54555;SDS011;57291;37.520;15.106;2024-02-28T04:19:33;47.17;;;7.95;;
54555;SDS011;57291;37.520;15.106;2024-02-28T04:22:04;49.92;;;7.88;;
54555;SDS011;57291;37.520;15.106;2024-02-28T04:24:31;50.38;;;7.60;;
54555;SDS011;57291;37.520;15.106;2024-02-28T04:26:59;41.22;;;8.23;;
54555;SDS011;57291;37.520;15.106;2024-02-28T04:29:27;42.58;;;7.45;;
54555;SDS011;57291;37.520;15.106;2024-02-28T04:31:54;47.70;;;7.15;;
54555;SDS011;57291;37.520;15.106;2024-02-28T04:34:21;53.75;;;9.35;;
54555;SDS011;57291;37.520;15.106;2024-02-28T04:36:49;51.92;;;8.48;;
54555;SDS011;57291;37.520;15.106;2024-02-28T04:39:16;56.88;;;8.98;;
54555;SDS011;57291;37.520;15.106;2024-02-28T04:41:44;66.38;;;9.75;;
54555;SDS011;57291;37.520;15.106;2024-02-28T04:44:11;56.80;;;8.63;;
54555;SDS011;57291;37.520;15.106;2024-02-28T04:46:38;64.15;;;10.13;;
54555;SDS011;57291;37.520;15.106;2024-02-28T04:49:06;59.10;;;9.35;;
54555;SDS011;57291;37.520;15.106;2024-02-28T04:51:33;54.25;;;8.63;;
54555;SDS011;57291;37.520;15.106;2024-02-28T04:54:00;37.92;;;6.47;;
54555;SDS011;57291;37.520;15.106;2024-02-28T04:56:28;40.42;;;6.72;;
54555;SDS011;57291;37.520;15.106;2024-02-28T04:58:55;53.60;;;7.75;;
54555;SDS011;57291;37.520;15.106;2024-02-28T05:01:22;35.80;;;6.07;;
54555;SDS011;57291;37.520;15.106;2024-02-28T05:03:50;42.00;;;6.90;;
54555;SDS011;57291;37.520;15.106;2024-02-28T05:06:17;41.45;;;6.75;;
54555;SDS011;57291;37.520;15.106;2024-02-28T05:08:45;48.70;;;7.72;;
54555;SDS011;57291;37.520;15.106;2024-02-28T05:11:12;53.15;;;9.00;;
54555;SDS011;57291;37.520;15.106;2024-02-28T05:13:39;52.40;;;9.18;;
54555;SDS011;57291;37.520;15.106;2024-02-28T05:16:13;60.22;;;9.25;;
54555;SDS011;57291;37.520;15.106;2024-02-28T05:18:41;46.95;;;8.43;;
54555;SDS011;57291;37.520;15.106;2024-02-28T05:21:11;46.90;;;6.53;;
54555;SDS011;57291;37.520;15.106;2024-02-28T05:23:39;45.70;;;6.38;;
54555;SDS011;57291;37.520;15.106;2024-02-28T05:26:07;44.03;;;7.50;;
54555;SDS011;57291;37.520;15.106;2024-02-28T05:28:35;52.42;;;8.20;;
54555;SDS011;57291;37.520;15.106;2024-02-28T05:31:45;43.85;;;7.25;;
54555;SDS011;57291;37.520;15.106;2024-02-28T05:33:54;64.47;;;10.10;;
54555;SDS011;57291;37.520;15.106;2024-02-28T05:36:24;42.28;;;6.82;;
54555;SDS011;57291;37.520;15.106;2024-02-28T05:38:53;51.60;;;8.10;;
54555;SDS011;57291;37.520;15.106;2024-02-28T05:41:21;43.75;;;7.28;;
54555;SDS011;57291;37.520;15.106;2024-02-28T05:43:50;43.53;;;7.35;;
54555;SDS011;57291;37.520;15.106;2024-02-28T05:46:18;45.63;;;7.00;;
54555;SDS011;57291;37.520;15.106;2024-02-28T05:48:45;53.03;;;7.03;;
54555;SDS011;57291;37.520;15.106;2024-02-28T05:51:13;48.45;;;7.20;;
54555;SDS011;57291;37.520;15.106;2024-02-28T05:53:41;46.75;;;8.82;;
54555;SDS011;57291;37.520;15.106;2024-02-28T05:56:10;50.85;;;7.85;;
54555;SDS011;57291;37.520;15.106;2024-02-28T05:58:41;55.05;;;8.18;;
54555;SDS011;57291;37.520;15.106;2024-02-28T06:01:10;43.30;;;8.48;;
54555;SDS011;57291;37.520;15.106;2024-02-28T06:03:38;43.25;;;7.93;;
54555;SDS011;57291;37.520;15.106;2024-02-28T06:06:05;46.53;;;8.50;;
54555;SDS011;57291;37.520;15.106;2024-02-28T06:08:37;50.50;;;9.35;;
54555;SDS011;57291;37.520;15.106;2024-02-28T06:11:07;44.17;;;7.53;;
54555;SDS011;57291;37.520;15.106;2024-02-28T06:13:37;45.60;;;8.02;;
54555;SDS011;57291;37.520;15.106;2024-02-28T06:16:07;51.78;;;8.18;;
54555;SDS011;57291;37.520;15.106;2024-02-28T06:18:34;46.72;;;7.82;;
54555;SDS011;57291;37.520;15.106;2024-02-28T06:21:02;38.08;;;7.85;;
54555;SDS011;57291;37.520;15.106;2024-02-28T06:23:29;74.50;;;13.20;;
54555;SDS011;57291;37.520;15.106;2024-02-28T06:25:57;67.97;;;13.85;;
54555;SDS011;57291;37.520;15.106;2024-02-28T06:28:24;52.70;;;7.43;;
54555;SDS011;57291;37.520;15.106;2024-02-28T06:30:52;46.65;;;8.82;;
54555;SDS011;57291;37.520;15.106;2024-02-28T06:33:19;64.85;;;9.35;;
54555;SDS011;57291;37.520;15.106;2024-02-28T06:35:46;48.15;;;8.80;;
54555;SDS011;57291;37.520;15.106;2024-02-28T06:38:14;49.03;;;9.15;;
54555;SDS011;57291;37.520;15.106;2024-02-28T06:40:41;50.22;;;8.00;;
54555;SDS011;57291;37.520;15.106;2024-02-28T06:43:08;60.38;;;9.55;;
54555;SDS011;57291;37.520;15.106;2024-02-28T06:45:36;51.80;;;9.18;;
54555;SDS011;57291;37.520;15.106;2024-02-28T06:48:04;49.35;;;8.20;;
54555;SDS011;57291;37.520;15.106;2024-02-28T06:50:32;38.63;;;6.70;;
54555;SDS011;57291;37.520;15.106;2024-02-28T06:52:59;42.13;;;7.47;;
54555;SDS011;57291;37.520;15.106;2024-02-28T06:55:27;53.47;;;8.65;;
54555;SDS011;57291;37.520;15.106;2024-02-28T06:57:54;61.38;;;9.95;;
54555;SDS011;57291;37.520;15.106;2024-02-28T07:00:21;52.17;;;10.48;;
54555;SDS011;57291;37.520;15.106;2024-02-28T07:02:49;71.78;;;12.40;;
54555;SDS011;57291;37.520;15.106;2024-02-28T07:05:17;47.05;;;8.77;;
54555;SDS011;57291;37.520;15.106;2024-02-28T07:07:46;36.75;;;6.97;;
54555;SDS011;57291;37.520;15.106;2024-02-28T07:10:13;59.65;;;9.77;;
54555;SDS011;57291;37.520;15.106;2024-02-28T07:12:40;56.40;;;9.93;;
54555;SDS011;57291;37.520;15.106;2024-02-28T07:15:08;75.93;;;12.88;;
54555;SDS011;57291;37.520;15.106;2024-02-28T07:17:35;51.30;;;9.18;;
54555;SDS011;57291;37.520;15.106;2024-02-28T07:20:02;79.93;;;13.43;;
54555;SDS011;57291;37.520;15.106;2024-02-28T07:22:30;51.13;;;8.65;;
54555;SDS011;57291;37.520;15.106;2024-02-28T07:24:57;45.60;;;9.05;;
54555;SDS011;57291;37.520;15.106;2024-02-28T07:27:24;40.33;;;6.63;;
54555;SDS011;57291;37.520;15.106;2024-02-28T07:29:52;38.65;;;6.32;;
54555;SDS011;57291;37.520;15.106;2024-02-28T07:32:19;45.22;;;8.00;;
54555;SDS011;57291;37.520;15.106;2024-02-28T07:34:56;48.75;;;7.95;;
54555;SDS011;57291;37.520;15.106;2024-02-28T07:37:23;56.15;;;10.93;;
54555;SDS011;57291;37.520;15.106;2024-02-28T07:39:50;50.90;;;9.38;;
54555;SDS011;57291;37.520;15.106;2024-02-28T07:42:24;39.42;;;7.55;;
54555;SDS011;57291;37.520;15.106;2024-02-28T07:44:52;48.90;;;8.18;;
54555;SDS011;57291;37.520;15.106;2024-02-28T07:47:24;54.60;;;8.82;;
54555;SDS011;57291;37.520;15.106;2024-02-28T07:49:51;48.25;;;8.70;;
54555;SDS011;57291;37.520;15.106;2024-02-28T07:52:20;49.25;;;7.75;;
54555;SDS011;57291;37.520;15.106;2024-02-28T07:54:47;61.72;;;10.15;;
54555;SDS011;57291;37.520;15.106;2024-02-28T07:57:15;50.95;;;8.65;;
54555;SDS011;57291;37.520;15.106;2024-02-28T07:59:42;51.50;;;9.10;;
54555;SDS011;57291;37.520;15.106;2024-02-28T08:02:10;50.30;;;8.60;;
54555;SDS011;57291;37.520;15.106;2024-02-28T08:04:41;60.92;;;10.23;;
54555;SDS011;57291;37.520;15.106;2024-02-28T08:07:08;49.28;;;9.23;;
54555;SDS011;57291;37.520;15.106;2024-02-28T08:09:35;54.55;;;9.30;;
54555;SDS011;57291;37.520;15.106;2024-02-28T08:12:03;59.97;;;9.77;;
54555;SDS011;57291;37.520;15.106;2024-02-28T08:14:30;61.20;;;10.65;;
54555;SDS011;57291;37.520;15.106;2024-02-28T08:16:58;89.78;;;14.75;;
54555;SDS011;57291;37.520;15.106;2024-02-28T08:19:25;80.85;;;13.40;;
54555;SDS011;57291;37.520;15.106;2024-02-28T08:21:53;58.30;;;11.40;;
54555;SDS011;57291;37.520;15.106;2024-02-28T08:24:20;60.78;;;11.55;;
54555;SDS011;57291;37.520;15.106;2024-02-28T08:26:48;71.32;;;13.60;;
54555;SDS011;57291;37.520;15.106;2024-02-28T08:29:15;73.68;;;15.07;;
54555;SDS011;57291;37.520;15.106;2024-02-28T08:31:43;73.85;;;13.15;;
54555;SDS011;57291;37.520;15.106;2024-02-28T08:34:11;78.90;;;14.90;;
54555;SDS011;57291;37.520;15.106;2024-02-28T08:36:39;86.30;;;15.43;;
54555;SDS011;57291;37.520;15.106;2024-02-28T08:39:06;86.63;;;15.23;;
54555;SDS011;57291;37.520;15.106;2024-02-28T08:41:36;78.97;;;13.77;;
54555;SDS011;57291;37.520;15.106;2024-02-28T08:44:03;70.30;;;12.25;;
54555;SDS011;57291;37.520;15.106;2024-02-28T08:46:31;73.25;;;14.18;;
54555;SDS011;57291;37.520;15.106;2024-02-28T08:48:58;78.35;;;14.90;;
54555;SDS011;57291;37.520;15.106;2024-02-28T08:51:26;92.45;;;16.10;;
54555;SDS011;57291;37.520;15.106;2024-02-28T08:53:54;91.32;;;17.92;;
54555;SDS011;57291;37.520;15.106;2024-02-28T08:56:22;81.40;;;13.90;;
54555;SDS011;57291;37.520;15.106;2024-02-28T08:58:49;87.05;;;14.65;;
54555;SDS011;57291;37.520;15.106;2024-02-28T09:01:17;90.88;;;14.95;;
54555;SDS011;57291;37.520;15.106;2024-02-28T09:03:44;79.75;;;15.82;;
54555;SDS011;57291;37.520;15.106;2024-02-28T09:06:12;87.53;;;17.90;;
54555;SDS011;57291;37.520;15.106;2024-02-28T09:08:42;80.35;;;16.35;;
54555;SDS011;57291;37.520;15.106;2024-02-28T09:11:09;81.03;;;15.27;;
54555;SDS011;57291;37.520;15.106;2024-02-28T09:13:38;94.63;;;15.95;;
54555;SDS011;57291;37.520;15.106;2024-02-28T09:16:05;83.18;;;16.25;;
54555;SDS011;57291;37.520;15.106;2024-02-28T09:18:33;81.93;;;16.63;;
54555;SDS011;57291;37.520;15.106;2024-02-28T09:21:00;87.30;;;15.98;;
54555;SDS011;57291;37.520;15.106;2024-02-28T09:23:27;99.03;;;19.20;;
54555;SDS011;57291;37.520;15.106;2024-02-28T09:25:55;86.93;;;16.30;;
54555;SDS011;57291;37.520;15.106;2024-02-28T09:28:23;90.55;;;18.83;;
54555;SDS011;57291;37.520;15.106;2024-02-28T09:30:50;86.05;;;16.02;;
54555;SDS011;57291;37.520;15.106;2024-02-28T09:33:19;101.50;;;17.42;;
54555;SDS011;57291;37.520;15.106;2024-02-28T09:35:47;87.72;;;16.05;;
54555;SDS011;57291;37.520;15.106;2024-02-28T09:38:14;93.47;;;17.75;;
54555;SDS011;57291;37.520;15.106;2024-02-28T09:40:45;84.72;;;16.90;;
54555;SDS011;57291;37.520;15.106;2024-02-28T09:43:36;80.22;;;15.68;;
54555;SDS011;57291;37.520;15.106;2024-02-28T09:46:08;72.80;;;14.60;;
54555;SDS011;57291;37.520;15.106;2024-02-28T09:48:40;77.50;;;14.13;;
54555;SDS011;57291;37.520;15.106;2024-02-28T09:51:08;109.60;;;19.67;;
54555;SDS011;57291;37.520;15.106;2024-02-28T09:53:36;80.22;;;16.52;;
54555;SDS011;57291;37.520;15.106;2024-02-28T09:56:05;94.28;;;17.42;;
54555;SDS011;57291;37.520;15.106;2024-02-28T09:58:33;92.18;;;15.93;;
54555;SDS011;57291;37.520;15.106;2024-02-28T10:01:02;87.72;;;16.15;;
54555;SDS011;57291;37.520;15.106;2024-02-28T10:03:31;82.50;;;18.50;;
54555;SDS011;57291;37.520;15.106;2024-02-28T10:05:59;92.40;;;18.98;;
54555;SDS011;57291;37.520;15.106;2024-02-28T10:08:31;69.72;;;14.10;;
54555;SDS011;57291;37.520;15.106;2024-02-28T10:10:58;95.40;;;17.83;;
54555;SDS011;57291;37.520;15.106;2024-02-28T10:13:26;92.50;;;18.20;;
54555;SDS011;57291;37.520;15.106;2024-02-28T10:15:53;73.97;;;14.40;;
54555;SDS011;57291;37.520;15.106;2024-02-28T10:18:21;78.88;;;13.95;;
54555;SDS011;57291;37.520;15.106;2024-02-28T10:20:48;83.30;;;18.10;;
54555;SDS011;57291;37.520;15.106;2024-02-28T10:23:16;77.38;;;14.65;;
54555;SDS011;57291;37.520;15.106;2024-02-28T10:25:47;97.18;;;19.52;;
54555;SDS011;57291;37.520;15.106;2024-02-28T10:28:23;114.45;;;21.15;;
54555;SDS011;57291;37.520;15.106;2024-02-28T10:30:51;82.47;;;15.70;;
54555;SDS011;57291;37.520;15.106;2024-02-28T10:33:19;99.32;;;17.52;;
54555;SDS011;57291;37.520;15.106;2024-02-28T10:35:47;99.00;;;18.67;;
54555;SDS011;57291;37.520;15.106;2024-02-28T10:38:20;73.20;;;14.85;;
54555;SDS011;57291;37.520;15.106;2024-02-28T10:40:48;98.13;;;17.67;;
54555;SDS011;57291;37.520;15.106;2024-02-28T10:43:17;100.88;;;18.85;;
54555;SDS011;57291;37.520;15.106;2024-02-28T10:45:46;86.05;;;16.00;;
54555;SDS011;57291;37.520;15.106;2024-02-28T10:48:34;98.35;;;18.85;;
54555;SDS011;57291;37.520;15.106;2024-02-28T10:51:02;96.88;;;18.15;;
54555;SDS011;57291;37.520;15.106;2024-02-28T10:53:37;106.53;;;17.38;;
54555;SDS011;57291;37.520;15.106;2024-02-28T10:56:09;110.72;;;21.92;;
54555;SDS011;57291;37.520;15.106;2024-02-28T10:58:42;100.60;;;19.98;;
54555;SDS011;57291;37.520;15.106;2024-02-28T11:01:18;113.50;;;19.48;;
54555;SDS011;57291;37.520;15.106;2024-02-28T11:03:48;90.70;;;19.10;;
54555;SDS011;57291;37.520;15.106;2024-02-28T11:06:18;104.95;;;19.55;;
54555;SDS011;57291;37.520;15.106;2024-02-28T11:08:49;87.75;;;17.55;;
54555;SDS011;57291;37.520;15.106;2024-02-28T11:11:21;76.55;;;15.95;;
54555;SDS011;57291;37.520;15.106;2024-02-28T11:13:56;107.35;;;22.83;;
54555;SDS011;57291;37.520;15.106;2024-02-28T11:16:28;109.03;;;17.83;;
54555;SDS011;57291;37.520;15.106;2024-02-28T11:19:00;91.90;;;16.30;;
54555;SDS011;57291;37.520;15.106;2024-02-28T11:21:28;91.53;;;17.35;;
54555;SDS011;57291;37.520;15.106;2024-02-28T11:23:59;105.55;;;20.58;;
54555;SDS011;57291;37.520;15.106;2024-02-28T11:26:27;128.40;;;24.48;;
54555;SDS011;57291;37.520;15.106;2024-02-28T11:28:55;116.07;;;21.33;;
54555;SDS011;57291;37.520;15.106;2024-02-28T11:31:22;101.75;;;19.38;;
54555;SDS011;57291;37.520;15.106;2024-02-28T11:33:50;110.07;;;20.10;;
54555;SDS011;57291;37.520;15.106;2024-02-28T11:36:17;105.18;;;21.02;;
54555;SDS011;57291;37.520;15.106;2024-02-28T11:38:46;121.22;;;26.73;;
54555;SDS011;57291;37.520;15.106;2024-02-28T11:41:14;88.90;;;16.40;;
54555;SDS011;57291;37.520;15.106;2024-02-28T11:43:41;99.50;;;20.38;;
54555;SDS011;57291;37.520;15.106;2024-02-28T11:46:18;98.07;;;17.10;;
54555;SDS011;57291;37.520;15.106;2024-02-28T11:48:46;91.03;;;18.45;;
54555;SDS011;57291;37.520;15.106;2024-02-28T11:51:13;121.10;;;25.08;;
54555;SDS011;57291;37.520;15.106;2024-02-28T11:53:41;92.32;;;16.65;;
54555;SDS011;57291;37.520;15.106;2024-02-28T11:56:08;103.97;;;19.98;;
54555;SDS011;57291;37.520;15.106;2024-02-28T11:58:35;97.82;;;17.95;;
54555;SDS011;57291;37.520;15.106;2024-02-28T12:01:03;127.00;;;22.10;;
54555;SDS011;57291;37.520;15.106;2024-02-28T12:03:30;107.63;;;21.20;;
54555;SDS011;57291;37.520;15.106;2024-02-28T12:05:58;108.72;;;20.35;;
54555;SDS011;57291;37.520;15.106;2024-02-28T12:08:27;95.55;;;19.20;;
54555;SDS011;57291;37.520;15.106;2024-02-28T12:11:05;105.88;;;18.27;;
54555;SDS011;57291;37.520;15.106;2024-02-28T12:13:34;101.97;;;20.30;;
54555;SDS011;57291;37.520;15.106;2024-02-28T12:16:01;106.50;;;21.23;;
54555;SDS011;57291;37.520;15.106;2024-02-28T12:18:29;93.68;;;20.67;;
54555;SDS011;57291;37.520;15.106;2024-02-28T12:20:57;109.25;;;21.02;;
54555;SDS011;57291;37.520;15.106;2024-02-28T12:23:24;104.78;;;19.65;;
54555;SDS011;57291;37.520;15.106;2024-02-28T12:25:51;120.50;;;21.33;;
54555;SDS011;57291;37.520;15.106;2024-02-28T12:28:18;121.10;;;22.42;;
54555;SDS011;57291;37.520;15.106;2024-02-28T12:30:46;113.75;;;23.23;;
54555;SDS011;57291;37.520;15.106;2024-02-28T12:33:13;108.70;;;22.08;;
54555;SDS011;57291;37.520;15.106;2024-02-28T12:35:41;109.20;;;21.33;;
54555;SDS011;57291;37.520;15.106;2024-02-28T12:38:09;115.82;;;19.95;;
54555;SDS011;57291;37.520;15.106;2024-02-28T12:40:38;102.85;;;19.17;;
54555;SDS011;57291;37.520;15.106;2024-02-28T12:43:05;89.70;;;17.38;;
54555;SDS011;57291;37.520;15.106;2024-02-28T12:45:32;100.80;;;19.55;;
54555;SDS011;57291;37.520;15.106;2024-02-28T12:48:00;102.50;;;18.50;;
54555;SDS011;57291;37.520;15.106;2024-02-28T12:50:28;101.22;;;18.33;;
54555;SDS011;57291;37.520;15.106;2024-02-28T12:52:56;103.25;;;20.50;;
54555;SDS011;57291;37.520;15.106;2024-02-28T12:55:23;112.57;;;20.90;;
54555;SDS011;57291;37.520;15.106;2024-02-28T12:57:50;106.25;;;19.70;;
54555;SDS011;57291;37.520;15.106;2024-02-28T13:00:18;105.05;;;19.80;;
54555;SDS011;57291;37.520;15.106;2024-02-28T13:02:47;131.55;;;26.33;;
54555;SDS011;57291;37.520;15.106;2024-02-28T13:05:14;111.28;;;21.40;;
54555;SDS011;57291;37.520;15.106;2024-02-28T13:07:41;94.47;;;17.60;;
54555;SDS011;57291;37.520;15.106;2024-02-28T13:10:09;100.75;;;20.33;;
54555;SDS011;57291;37.520;15.106;2024-02-28T13:12:40;100.35;;;18.10;;
54555;SDS011;57291;37.520;15.106;2024-02-28T13:15:07;107.72;;;20.05;;
54555;SDS011;57291;37.520;15.106;2024-02-28T13:17:35;128.38;;;24.65;;
54555;SDS011;57291;37.520;15.106;2024-02-28T13:20:03;126.38;;;24.55;;
54555;SDS011;57291;37.520;15.106;2024-02-28T13:22:31;106.78;;;20.35;;
54555;SDS011;57291;37.520;15.106;2024-02-28T13:24:58;133.32;;;24.92;;
54555;SDS011;57291;37.520;15.106;2024-02-28T13:27:26;99.43;;;19.58;;
54555;SDS011;57291;37.520;15.106;2024-02-28T13:29:53;104.55;;;18.35;;
54555;SDS011;57291;37.520;15.106;2024-02-28T13:32:21;100.90;;;18.92;;
54555;SDS011;57291;37.520;15.106;2024-02-28T13:34:48;112.43;;;20.00;;
54555;SDS011;57291;37.520;15.106;2024-02-28T13:37:16;138.13;;;24.60;;
54555;SDS011;57291;37.520;15.106;2024-02-28T13:39:43;119.57;;;24.48;;
54555;SDS011;57291;37.520;15.106;2024-02-28T13:42:11;93.63;;;18.38;;
54555;SDS011;57291;37.520;15.106;2024-02-28T13:44:39;113.38;;;19.65;;
54555;SDS011;57291;37.520;15.106;2024-02-28T13:47:07;97.47;;;20.08;;
54555;SDS011;57291;37.520;15.106;2024-02-28T13:49:34;111.65;;;21.67;;
54555;SDS011;57291;37.520;15.106;2024-02-28T13:52:02;115.82;;;19.60;;
54555;SDS011;57291;37.520;15.106;2024-02-28T13:54:29;90.53;;;16.55;;
54555;SDS011;57291;37.520;15.106;2024-02-28T13:56:58;124.57;;;24.75;;
54555;SDS011;57291;37.520;15.106;2024-02-28T13:59:25;137.90;;;24.42;;
54555;SDS011;57291;37.520;15.106;2024-02-28T14:01:52;124.38;;;22.63;;
54555;SDS011;57291;37.520;15.106;2024-02-28T14:04:20;123.90;;;20.30;;
54555;SDS011;57291;37.520;15.106;2024-02-28T14:06:48;130.07;;;22.58;;
54555;SDS011;57291;37.520;15.106;2024-02-28T14:09:16;130.70;;;22.45;;
54555;SDS011;57291;37.520;15.106;2024-02-28T14:11:43;134.55;;;28.48;;
54555;SDS011;57291;37.520;15.106;2024-02-28T14:14:11;110.72;;;20.95;;
54555;SDS011;57291;37.520;15.106;2024-02-28T14:16:39;115.78;;;20.35;;
54555;SDS011;57291;37.520;15.106;2024-02-28T14:19:07;122.43;;;22.73;;